Time;durP1;ratioP1;P1;durP2;ratioP2;P2;SDS_P1;SDS_P2;PMS_P1;PMS_P2;Temp;Humidity;BMP_temperature;BMP_pressure;BME280_temperature;BME280_humidity;BME280_pressure;Samples;Min_cycle;Max_cycle;Signal;HPM_P1;HPM_P2
2021/11/24 00:00:07;;;;;;;4.38;2.30;;;;;;;;;;4846715;29;32265;-71
2021/11/24 00:02:34;;;;;;;5.82;2.38;;;;;;;;;;4848248;29;32207;-73
2021/11/24 00:05:01;;;;;;;4.38;2.13;;;;;;;;;;4848199;29;32308;-69
2021/11/24 00:07:27;;;;;;;4.90;2.47;;;;;;;;;;4847495;29;34665;-72
2021/11/24 00:09:54;;;;;;;5.15;3.22;;;;;;;;;;4847699;29;32314;-72
2021/11/24 00:12:22;;;;;;;8.95;2.85;;;;;;;;;;4847936;29;32095;-72
2021/11/24 00:14:48;;;;;;;4.50;2.58;;;;;;;;;;4847496;29;32267;-72
2021/11/24 00:17:16;;;;;;;3.45;2.20;;;;;;;;;;4847971;29;33906;-72
2021/11/24 00:19:43;;;;;;;4.10;2.03;;;;;;;;;;4848110;29;32346;-72
2021/11/24 00:22:10;;;;;;;3.88;2.17;;;;;;;;;;4850410;29;32044;-72
2021/11/24 00:24:36;;;;;;;4.88;2.20;;;;;;;;;;4866288;29;32243;-71
2021/11/24 00:27:03;;;;;;;6.05;2.20;;;;;;;;;;4865220;29;32275;-72
2021/11/24 00:29:31;;;;;;;6.85;2.38;;;;;;;;;;4866087;29;35524;-70
2021/11/24 00:31:57;;;;;;;7.80;2.58;;;;;;;;;;4866503;29;32478;-71
2021/11/24 00:34:24;;;;;;;6.15;2.78;;;;;;;;;;4866191;29;32307;-71
2021/11/24 00:36:50;;;;;;;7.20;2.80;;;;;;;;;;4865782;29;32303;-71
2021/11/24 00:39:17;;;;;;;5.78;2.55;;;;;;;;;;4866141;29;34566;-72
2021/11/24 00:41:43;;;;;;;5.30;2.42;;;;;;;;;;4866450;29;32180;-71
2021/11/24 00:44:10;;;;;;;5.43;2.47;;;;;;;;;;4848951;29;32424;-72
2021/11/24 00:46:39;;;;;;;5.88;2.65;;;;;;;;;;4865928;29;32278;-71
2021/11/24 00:49:06;;;;;;;7.18;3.15;;;;;;;;;;4865877;29;32288;-71
2021/11/24 00:51:32;;;;;;;7.53;2.67;;;;;;;;;;4864501;29;33894;-72
2021/11/24 00:53:59;;;;;;;5.22;2.72;;;;;;;;;;4866214;29;32387;-71
2021/11/24 00:56:26;;;;;;;5.93;2.35;;;;;;;;;;4866308;29;32405;-72
2021/11/24 00:58:52;;;;;;;4.97;2.45;;;;;;;;;;4833721;29;32285;-71
2021/11/24 01:01:19;;;;;;;4.07;2.15;;;;;;;;;;4828453;29;34448;-72
2021/11/24 01:03:47;;;;;;;5.47;2.58;;;;;;;;;;4828488;29;32026;-72
2021/11/24 01:06:14;;;;;;;4.50;2.45;;;;;;;;;;4828175;29;32285;-71
2021/11/24 01:08:40;;;;;;;6.03;2.55;;;;;;;;;;4843183;29;32099;-71
2021/11/24 01:11:07;;;;;;;6.20;2.58;;;;;;;;;;4846270;29;32209;-71
2021/11/24 01:13:33;;;;;;;4.75;2.65;;;;;;;;;;4849803;29;35256;-71
2021/11/24 01:16:00;;;;;;;5.78;2.45;;;;;;;;;;4848314;29;32361;-73
2021/11/24 01:18:27;;;;;;;6.18;2.70;;;;;;;;;;4850160;29;32181;-72
2021/11/24 01:20:55;;;;;;;5.88;2.50;;;;;;;;;;4849513;29;32538;-70
2021/11/24 01:23:21;;;;;;;7.18;2.60;;;;;;;;;;4849424;29;34289;-70
2021/11/24 01:25:48;;;;;;;4.50;2.30;;;;;;;;;;4849700;29;32197;-70
2021/11/24 01:28:14;;;;;;;6.78;2.47;;;;;;;;;;4849218;29;32178;-68
2021/11/24 01:30:41;;;;;;;5.38;2.25;;;;;;;;;;4849677;29;32355;-71
2021/11/24 01:33:08;;;;;;;5.93;2.30;;;;;;;;;;4849714;29;32103;-71
2021/11/24 01:35:35;;;;;;;5.93;2.30;;;;;;;;;;4849280;29;35643;-70
2021/11/24 01:38:03;;;;;;;5.93;2.55;;;;;;;;;;4851890;29;32456;-69
2021/11/24 01:40:30;;;;;;;4.20;2.05;;;;;;;;;;4868650;29;32400;-72
2021/11/24 01:42:57;;;;;;;6.22;2.67;;;;;;;;;;4859421;29;32136;-72
2021/11/24 01:45:23;;;;;;;4.13;2.42;;;;;;;;;;4849842;29;35901;-71
2021/11/24 01:47:51;;;;;;;8.10;2.70;;;;;;;;;;4848980;29;32032;-71
2021/11/24 01:50:17;;;;;;;;;;;;;;;;;;4849713;29;32353;-70
2021/11/24 01:52:44;;;;;;;3.92;2.10;;;;;;;;;;4844790;29;32296;-71
2021/11/24 01:55:15;;;;;;;4.90;2.10;;;;;;;;;;4830716;29;32190;-69
2021/11/24 01:57:44;;;;;;;7.40;2.55;;;;;;;;;;4814396;29;36043;-72
2021/11/24 02:00:14;;;;;;;4.30;2.00;;;;;;;;;;4830708;29;32083;-71
2021/11/24 02:02:40;;;;;;;4.47;2.92;;;;;;;;;;4824117;29;32269;-72
2021/11/24 02:05:08;;;;;;;4.13;2.03;;;;;;;;;;4827609;29;32282;-70
2021/11/24 02:07:34;;;;;;;5.40;2.95;;;;;;;;;;4845284;29;35789;-70
2021/11/24 02:10:01;;;;;;;4.28;2.47;;;;;;;;;;4848275;29;32132;-68
2021/11/24 02:12:29;;;;;;;5.35;2.47;;;;;;;;;;4849110;29;32047;-69
2021/11/24 02:14:56;;;;;;;3.53;2.08;;;;;;;;;;4848095;29;32378;-68
2021/11/24 02:17:24;;;;;;;9.05;3.30;;;;;;;;;;4849151;29;32165;-71
2021/11/24 02:19:51;;;;;;;4.72;2.10;;;;;;;;;;4848591;29;35187;-70
2021/11/24 02:22:19;;;;;;;5.07;2.47;;;;;;;;;;4832249;29;32590;-72
2021/11/24 02:24:46;;;;;;;4.63;2.42;;;;;;;;;;4848093;29;32341;-70
2021/11/24 02:27:14;;;;;;;4.13;2.45;;;;;;;;;;4848102;29;32083;-72
2021/11/24 02:29:44;;;;;;;4.65;2.42;;;;;;;;;;4848500;29;35031;-70
2021/11/24 02:32:11;;;;;;;4.82;2.40;;;;;;;;;;4848341;29;32138;-69
2021/11/24 02:34:38;;;;;;;6.00;2.70;;;;;;;;;;4848606;29;32213;-71
2021/11/24 02:37:05;;;;;;;5.63;2.20;;;;;;;;;;4849127;29;32313;-70
2021/11/24 02:39:33;;;;;;;6.53;2.67;;;;;;;;;;4848546;29;32280;-71
2021/11/24 02:42:01;;;;;;;4.95;2.30;;;;;;;;;;4839139;29;35688;-70
2021/11/24 02:44:30;;;;;;;3.65;2.33;;;;;;;;;;4847956;29;32300;-69
2021/11/24 02:47:09;;;;;;;4.07;2.63;;;;;;;;;;4847658;29;32363;-72
2021/11/24 02:49:36;;;;;;;4.28;2.33;;;;;;;;;;4848059;29;32885;-69
2021/11/24 02:52:04;;;;;;;3.63;2.42;;;;;;;;;;4836161;29;34571;-71
2021/11/24 02:54:32;;;;;;;4.65;2.42;;;;;;;;;;4835961;29;32274;-70
2021/11/24 02:56:59;;;;;;;6.68;2.30;;;;;;;;;;4848304;29;32253;-71
2021/11/24 02:59:26;;;;;;;6.28;2.25;;;;;;;;;;4848423;29;32291;-72
2021/11/24 03:01:53;;;;;;;4.00;2.10;;;;;;;;;;4848403;29;32312;-70
2021/11/24 03:04:19;;;;;;;6.25;2.40;;;;;;;;;;4847547;29;34579;-70
2021/11/24 03:06:46;;;;;;;4.38;2.10;;;;;;;;;;4846331;29;32521;-70
2021/11/24 03:09:12;;;;;;;4.47;2.60;;;;;;;;;;4830769;29;32265;-71
2021/11/24 03:11:40;;;;;;;5.50;3.10;;;;;;;;;;4837247;29;32423;-71
2021/11/24 03:14:07;;;;;;;8.07;2.53;;;;;;;;;;4838060;29;34641;-70
2021/11/24 03:16:33;;;;;;;8.20;2.20;;;;;;;;;;4833865;29;32337;-70
2021/11/24 03:19:00;;;;;;;5.40;2.28;;;;;;;;;;4829594;29;32416;-72
2021/11/24 03:21:26;;;;;;;5.47;2.20;;;;;;;;;;4834147;29;32436;-72
2021/11/24 03:23:53;;;;;;;5.22;1.95;;;;;;;;;;4845402;29;32062;-70
2021/11/24 03:26:19;;;;;;;4.97;2.47;;;;;;;;;;4847298;29;34358;-72
2021/11/24 03:28:47;;;;;;;4.88;2.50;;;;;;;;;;4848108;29;32164;-74
2021/11/24 03:31:14;;;;;;;7.57;3.40;;;;;;;;;;4847579;29;32285;-72
2021/11/24 03:33:41;;;;;;;8.38;2.35;;;;;;;;;;4844844;29;32243;-75
2021/11/24 03:36:07;;;;;;;5.25;2.20;;;;;;;;;;4829424;29;35192;-73
2021/11/24 03:38:34;;;;;;;4.55;2.33;;;;;;;;;;4829501;29;32100;-74
2021/11/24 03:41:00;;;;;;;5.93;2.35;;;;;;;;;;4840881;29;32262;-69
2021/11/24 03:43:27;;;;;;;4.03;2.10;;;;;;;;;;4847579;29;32213;-72
2021/11/24 03:45:55;;;;;;;5.85;2.60;;;;;;;;;;4848275;29;32289;-73
2021/11/24 03:48:22;;;;;;;5.30;2.38;;;;;;;;;;4846647;29;35372;-75
2021/11/24 03:50:48;;;;;;;6.07;2.83;;;;;;;;;;4846785;29;32283;-75
2021/11/24 03:53:15;;;;;;;6.03;2.92;;;;;;;;;;4832115;29;32424;-74
2021/11/24 03:55:41;;;;;;;5.97;2.63;;;;;;;;;;4841130;29;32361;-73
2021/11/24 03:58:08;;;;;;;6.20;2.58;;;;;;;;;;4847783;29;35066;-71
2021/11/24 04:00:35;;;;;;;8.90;3.10;;;;;;;;;;4843566;29;32318;-73
2021/11/24 04:03:03;;;;;;;6.15;4.07;;;;;;;;;;4846130;29;32159;-72
2021/11/24 04:05:30;;;;;;;5.68;2.38;;;;;;;;;;4841682;29;32374;-70
2021/11/24 04:07:59;;;;;;;8.25;2.88;;;;;;;;;;4829762;29;32609;-71
2021/11/24 04:10:25;;;;;;;6.50;2.95;;;;;;;;;;4842197;29;32370;-71
2021/11/24 04:12:52;;;;;;;7.10;2.85;;;;;;;;;;4837682;29;32304;-72
2021/11/24 04:15:19;;;;;;;8.45;2.83;;;;;;;;;;4847295;29;32185;-72
2021/11/24 04:17:47;;;;;;;7.82;3.00;;;;;;;;;;4847099;29;32376;-71
2021/11/24 04:20:19;;;;;;;8.98;3.72;;;;;;;;;;4847104;29;34087;-71
2021/11/24 04:22:47;;;;;;;4.95;2.92;;;;;;;;;;4846442;29;32359;-74
2021/11/24 04:25:14;;;;;;;9.85;3.92;;;;;;;;;;4845888;29;32308;-71
2021/11/24 04:27:41;;;;;;;8.07;3.58;;;;;;;;;;4846056;29;32429;-71
2021/11/24 04:30:09;;;;;;;8.25;3.45;;;;;;;;;;4846246;29;32210;-71
2021/11/24 04:32:36;;;;;;;8.60;3.03;;;;;;;;;;4846259;29;32558;-71
2021/11/24 04:35:03;;;;;;;5.85;3.05;;;;;;;;;;4840169;29;32234;-71
2021/11/24 04:37:32;;;;;;;6.50;3.20;;;;;;;;;;4827578;29;32328;-69
2021/11/24 04:39:58;;;;;;;5.47;3.08;;;;;;;;;;4844753;29;32103;-72
2021/11/24 04:42:25;;;;;;;9.60;3.38;;;;;;;;;;4834057;29;35025;-71
2021/11/24 04:44:52;;;;;;;5.40;2.70;;;;;;;;;;4836663;29;32353;-70
2021/11/24 04:47:19;;;;;;;8.05;2.88;;;;;;;;;;4838204;29;32361;-71
2021/11/24 04:49:45;;;;;;;7.35;2.97;;;;;;;;;;4837464;29;32447;-71
2021/11/24 04:52:12;;;;;;;6.32;3.53;;;;;;;;;;4840933;29;32493;-71
2021/11/24 04:54:40;;;;;;;8.23;3.22;;;;;;;;;;4839611;29;32268;-71
2021/11/24 04:57:08;;;;;;;5.22;2.78;;;;;;;;;;4838126;29;32360;-70
2021/11/24 04:59:35;;;;;;;6.75;2.97;;;;;;;;;;4840139;29;32243;-70
2021/11/24 05:02:02;;;;;;;7.63;2.65;;;;;;;;;;4839007;29;32543;-70
2021/11/24 05:04:29;;;;;;;7.22;2.75;;;;;;;;;;4838892;29;35109;-71
2021/11/24 05:06:55;;;;;;;5.72;2.97;;;;;;;;;;4839253;29;32167;-71
2021/11/24 05:09:22;;;;;;;6.25;2.95;;;;;;;;;;4845600;29;32472;-71
2021/11/24 05:11:51;;;;;;;6.88;3.38;;;;;;;;;;4849718;29;32261;-71
2021/11/24 05:14:22;;;;;;;6.40;3.22;;;;;;;;;;4847615;29;31762;-71
2021/11/24 05:16:50;;;;;;;9.30;2.85;;;;;;;;;;4849390;29;32203;-71
2021/11/24 05:19:19;;;;;;;8.32;3.03;;;;;;;;;;4847592;29;33056;-70
2021/11/24 05:21:50;;;;;;;5.50;2.85;;;;;;;;;;4849525;29;32346;-70
2021/11/24 05:24:17;;;;;;;5.43;2.25;;;;;;;;;;4849312;29;32291;-71
2021/11/24 05:26:44;;;;;;;6.78;2.83;;;;;;;;;;4849117;29;34057;-72
2021/11/24 05:29:13;;;;;;;8.77;2.90;;;;;;;;;;4849219;29;32487;-71
2021/11/24 05:31:40;;;;;;;6.05;2.72;;;;;;;;;;4848833;29;32171;-71
2021/11/24 05:34:06;;;;;;;6.82;2.53;;;;;;;;;;4832606;29;32375;-72
2021/11/24 05:36:35;;;;;;;4.88;2.90;;;;;;;;;;4848535;29;32120;-73
2021/11/24 05:39:05;;;;;;;6.30;2.80;;;;;;;;;;4836345;29;32321;-71
2021/11/24 05:41:32;;;;;;;6.20;3.00;;;;;;;;;;4830692;29;32276;-73
2021/11/24 05:44:15;;;;;;;6.78;2.58;;;;;;;;;;4831126;29;32541;-73
2021/11/24 05:46:47;;;;;;;5.50;3.08;;;;;;;;;;4831060;29;32635;-72
2021/11/24 05:49:14;;;;;;;5.40;2.22;;;;;;;;;;4835165;29;34994;-72
2021/11/24 05:51:41;;;;;;;7.32;3.17;;;;;;;;;;4844209;29;32296;-73
2021/11/24 05:54:08;;;;;;;7.47;2.88;;;;;;;;;;4848594;29;32251;-72
2021/11/24 05:56:38;;;;;;;5.85;3.13;;;;;;;;;;4849558;29;32328;-70
2021/11/24 05:59:06;;;;;;;9.43;2.50;;;;;;;;;;4847700;29;32349;-73
2021/11/24 06:01:32;;;;;;;9.73;3.85;;;;;;;;;;4840151;29;32307;-72
2021/11/24 06:04:00;;;;;;;9.57;2.85;;;;;;;;;;4830811;29;32198;-74
2021/11/24 06:06:27;;;;;;;7.30;2.80;;;;;;;;;;4835882;29;32172;-72
2021/11/24 06:08:54;;;;;;;9.40;3.38;;;;;;;;;;4847299;29;32229;-72
2021/11/24 06:11:20;;;;;;;9.38;2.88;;;;;;;;;;4847793;29;34454;-72
2021/11/24 06:13:48;;;;;;;6.20;2.80;;;;;;;;;;4848819;29;32404;-73
2021/11/24 06:16:14;;;;;;;;;;;;;;;;;;4849093;29;32323;-71
2021/11/24 06:18:41;;;;;;;8.70;3.28;;;;;;;;;;4847348;29;32324;-72
2021/11/24 06:21:09;;;;;;;9.02;3.03;;;;;;;;;;4847742;29;34612;-75
2021/11/24 06:23:39;;;;;;;7.75;3.28;;;;;;;;;;4848175;29;32232;-72
2021/11/24 06:26:06;;;;;;;9.20;3.55;;;;;;;;;;4839612;29;32471;-72
2021/11/24 06:28:33;;;;;;;7.68;3.58;;;;;;;;;;4837684;29;32397;-71
2021/11/24 06:30:59;;;;;;;5.85;2.92;;;;;;;;;;4839759;29;32266;-70
2021/11/24 06:33:26;;;;;;;7.15;2.97;;;;;;;;;;4848587;29;35782;-70
2021/11/24 06:35:53;;;;;;;9.50;3.25;;;;;;;;;;4848115;29;32281;-70
2021/11/24 06:38:21;;;;;;;15.93;3.50;;;;;;;;;;4847856;29;32210;-70
2021/11/24 06:40:48;;;;;;;7.80;3.58;;;;;;;;;;4843527;29;32403;-72
2021/11/24 06:43:15;;;;;;;8.60;3.38;;;;;;;;;;4839437;29;35614;-72
2021/11/24 06:45:42;;;;;;;10.27;4.30;;;;;;;;;;4837807;29;32505;-72
2021/11/24 06:48:09;;;;;;;8.05;3.80;;;;;;;;;;4837456;29;32110;-72
2021/11/24 06:50:35;;;;;;;10.20;3.50;;;;;;;;;;4838450;29;32148;-71
2021/11/24 06:53:03;;;;;;;11.38;4.45;;;;;;;;;;4829695;29;32109;-71
2021/11/24 06:55:31;;;;;;;8.93;4.22;;;;;;;;;;4830204;29;33911;-71
2021/11/24 06:57:57;;;;;;;12.95;4.18;;;;;;;;;;4836179;29;32219;-73
2021/11/24 07:00:26;;;;;;;15.27;4.53;;;;;;;;;;4837129;29;32224;-74
2021/11/24 07:02:53;;;;;;;9.10;4.55;;;;;;;;;;4837493;29;32263;-72
2021/11/24 07:05:20;;;;;;;13.85;4.30;;;;;;;;;;4837899;29;33906;-72
2021/11/24 07:07:46;;;;;;;15.23;4.10;;;;;;;;;;4838463;29;32671;-71
2021/11/24 07:10:13;;;;;;;15.70;5.15;;;;;;;;;;4838019;29;32152;-71
2021/11/24 07:12:41;;;;;;;13.25;4.43;;;;;;;;;;4837688;29;32286;-71
2021/11/24 07:15:09;;;;;;;10.32;4.03;;;;;;;;;;4838229;29;32320;-71
2021/11/24 07:17:36;;;;;;;13.02;3.97;;;;;;;;;;4836707;29;34588;-72
2021/11/24 07:20:04;;;;;;;18.00;5.05;;;;;;;;;;4839033;29;32338;-72
2021/11/24 07:22:31;;;;;;;11.68;4.88;;;;;;;;;;4835666;29;32290;-73
2021/11/24 07:24:58;;;;;;;10.80;4.30;;;;;;;;;;4828720;29;32951;-72
2021/11/24 07:27:24;;;;;;;14.02;4.70;;;;;;;;;;4830122;29;35465;-72
2021/11/24 07:29:52;;;;;;;11.20;4.57;;;;;;;;;;4829670;29;32348;-73
2021/11/24 07:32:19;;;;;;;10.32;4.32;;;;;;;;;;4844882;29;32263;-76
2021/11/24 07:34:45;;;;;;;15.63;4.28;;;;;;;;;;4845420;29;32027;-73
2021/11/24 07:37:12;;;;;;;11.48;4.45;;;;;;;;;;4835628;29;32192;-76
2021/11/24 07:39:39;;;;;;;13.02;4.32;;;;;;;;;;4830249;29;35477;-72
2021/11/24 07:42:06;;;;;;;16.10;5.25;;;;;;;;;;4836606;29;32127;-73
2021/11/24 07:44:33;;;;;;;11.63;4.95;;;;;;;;;;4829306;29;32148;-73
2021/11/24 07:47:01;;;;;;;9.95;4.13;;;;;;;;;;4841067;29;32225;-74
2021/11/24 07:49:28;;;;;;;13.25;4.80;;;;;;;;;;4839987;29;35102;-73
2021/11/24 07:51:54;;;;;;;16.75;4.70;;;;;;;;;;4834246;29;32040;-74
2021/11/24 07:54:21;;;;;;;16.23;5.25;;;;;;;;;;4845389;29;32250;-71
2021/11/24 07:56:47;;;;;;;13.23;4.80;;;;;;;;;;4845202;29;32272;-77
2021/11/24 07:59:14;;;;;;;14.75;4.95;;;;;;;;;;4841472;29;32458;-74
2021/11/24 08:01:40;;;;;;;12.50;4.70;;;;;;;;;;4846864;29;33944;-73
2021/11/24 08:04:09;;;;;;;15.70;4.97;;;;;;;;;;4846389;29;32528;-73
2021/11/24 08:06:35;;;;;;;14.32;4.50;;;;;;;;;;4846667;29;32329;-75
2021/11/24 08:09:02;;;;;;;14.98;5.55;;;;;;;;;;4847747;29;32501;-72
2021/11/24 08:11:29;;;;;;;13.05;5.65;;;;;;;;;;4841801;29;33968;-73
2021/11/24 08:13:56;;;;;;;8.00;3.95;;;;;;;;;;4832443;29;32346;-69
2021/11/24 08:16:22;;;;;;;14.75;3.50;;;;;;;;;;4865897;29;32340;-72
2021/11/24 08:18:49;;;;;;;15.70;4.70;;;;;;;;;;4855077;29;32245;-73
2021/11/24 08:21:17;;;;;;;14.05;3.92;;;;;;;;;;4846687;29;32184;-73
2021/11/24 08:23:43;;;;;;;18.10;4.85;;;;;;;;;;4846439;29;35855;-72
2021/11/24 08:26:10;;;;;;;18.38;4.78;;;;;;;;;;4841395;29;32300;-77
2021/11/24 08:28:37;;;;;;;14.57;4.60;;;;;;;;;;4847340;29;32181;-75
2021/11/24 08:31:03;;;;;;;14.55;5.15;;;;;;;;;;4837273;29;32222;-74
2021/11/24 08:33:30;;;;;;;16.58;4.82;;;;;;;;;;4835083;29;34473;-72
2021/11/24 08:35:56;;;;;;;16.58;4.88;;;;;;;;;;4844455;29;32253;-73
2021/11/24 08:38:25;;;;;;;14.10;5.32;;;;;;;;;;4843067;29;32418;-72
2021/11/24 08:40:51;;;;;;;19.58;5.10;;;;;;;;;;4838546;29;32575;-69
2021/11/24 08:43:18;;;;;;;11.05;3.60;;;;;;;;;;4833404;29;32381;-73
2021/11/24 08:45:45;;;;;;;11.40;4.32;;;;;;;;;;4834085;29;34733;-76
2021/11/24 08:48:11;;;;;;;16.17;4.43;;;;;;;;;;4837488;29;32530;-71
2021/11/24 08:50:38;;;;;;;13.85;4.13;;;;;;;;;;4836919;29;32172;-74
2021/11/24 08:53:05;;;;;;;12.35;4.35;;;;;;;;;;4829490;29;32274;-73
2021/11/24 08:55:33;;;;;;;8.45;3.53;;;;;;;;;;4829828;29;34722;-76
2021/11/24 08:58:00;;;;;;;9.32;3.78;;;;;;;;;;4832269;29;32360;-71
2021/11/24 09:00:27;;;;;;;9.75;3.58;;;;;;;;;;4835482;29;32244;-75
2021/11/24 09:02:54;;;;;;;11.02;4.38;;;;;;;;;;4840546;29;32239;-69
2021/11/24 09:05:20;;;;;;;14.85;4.07;;;;;;;;;;4831469;29;32614;-72
2021/11/24 09:07:49;;;;;;;12.25;3.95;;;;;;;;;;4832770;29;34302;-74
2021/11/24 09:10:17;;;;;;;10.07;3.80;;;;;;;;;;4839775;29;32501;-72
2021/11/24 09:12:45;;;;;;;9.10;3.42;;;;;;;;;;4842738;29;32312;-71
2021/11/24 09:15:12;;;;;;;9.18;3.83;;;;;;;;;;4834064;29;32260;-70
2021/11/24 09:17:40;;;;;;;12.20;3.88;;;;;;;;;;4833146;29;35170;-71
2021/11/24 09:20:08;;;;;;;7.15;3.65;;;;;;;;;;4832137;29;33280;-71
2021/11/24 09:22:35;;;;;;;8.15;3.35;;;;;;;;;;4829065;29;32400;-70
2021/11/24 09:25:03;;;;;;;12.77;3.35;;;;;;;;;;4833508;29;32322;-71
2021/11/24 09:27:44;;;;;;;6.93;3.63;;;;;;;;;;4836969;29;32433;-69
2021/11/24 09:30:13;;;;;;;9.05;3.40;;;;;;;;;;4834662;29;34017;-68
2021/11/24 09:32:41;;;;;;;7.80;3.83;;;;;;;;;;4829154;29;32318;-69
2021/11/24 09:35:09;;;;;;;7.05;3.25;;;;;;;;;;4833666;29;32304;-68
2021/11/24 09:37:35;;;;;;;7.97;3.25;;;;;;;;;;4833967;29;32567;-69
2021/11/24 09:40:03;;;;;;;11.77;3.88;;;;;;;;;;4833670;29;35529;-67
2021/11/24 09:42:29;;;;;;;;;;;;;;;;;;4830589;29;32116;-73
2021/11/24 09:44:57;;;;;;;6.68;2.88;;;;;;;;;;4841591;29;32309;-70
2021/11/24 09:47:27;;;;;;;8.25;4.18;;;;;;;;;;4835739;29;32499;-71
2021/11/24 09:49:59;;;;;;;6.90;2.92;;;;;;;;;;4836920;29;32281;-68
2021/11/24 09:52:27;;;;;;;6.93;3.22;;;;;;;;;;4749439;29;35051;-69
2021/11/24 09:54:54;;;;;;;9.60;4.93;;;;;;;;;;4810903;29;32341;-71
2021/11/24 09:57:23;;;;;;;7.90;3.05;;;;;;;;;;4825726;29;32279;-69
2021/11/24 09:59:50;;;;;;;6.97;2.65;;;;;;;;;;4827032;29;32352;-68
2021/11/24 10:02:19;;;;;;;5.38;2.90;;;;;;;;;;4816346;29;35451;-69
2021/11/24 10:04:47;;;;;;;8.48;3.05;;;;;;;;;;4814840;29;32643;-69
2021/11/24 10:07:16;;;;;;;5.65;2.95;;;;;;;;;;4818270;29;32642;-67
2021/11/24 10:09:44;;;;;;;4.75;2.40;;;;;;;;;;4814515;29;32195;-67
2021/11/24 10:12:11;;;;;;;;;;;;;;;;;;4821770;29;32327;-67
2021/11/24 10:14:39;;;;;;;4.88;2.50;;;;;;;;;;4817702;29;34305;-69
2021/11/24 10:17:08;;;;;;;7.40;2.30;;;;;;;;;;4816634;29;32329;-71
2021/11/24 10:19:36;;;;;;;5.43;3.30;;;;;;;;;;4818596;29;32289;-70
2021/11/24 10:22:06;;;;;;;7.47;2.67;;;;;;;;;;4820607;29;32286;-68
2021/11/24 10:24:36;;;;;;;7.95;2.75;;;;;;;;;;4811112;29;35264;-73
2021/11/24 10:27:06;;;;;;;5.25;2.75;;;;;;;;;;4817182;29;32295;-69
2021/11/24 10:29:33;;;;;;;5.60;3.00;;;;;;;;;;4815973;29;32673;-72
2021/11/24 10:32:02;;;;;;;6.38;2.33;;;;;;;;;;4822414;29;32613;-70
2021/11/24 10:34:32;;;;;;;5.35;2.42;;;;;;;;;;4816084;29;32184;-70
2021/11/24 10:37:05;;;;;;;7.05;2.42;;;;;;;;;;4813250;29;35125;-70
2021/11/24 10:39:36;;;;;;;5.93;2.70;;;;;;;;;;4821792;29;32530;-73
2021/11/24 10:42:11;;;;;;;4.97;2.28;;;;;;;;;;4812933;29;32368;-68
2021/11/24 10:44:39;;;;;;;5.05;2.55;;;;;;;;;;4820894;29;32314;-70
2021/11/24 10:47:07;;;;;;;5.03;2.10;;;;;;;;;;4822296;29;33884;-67
2021/11/24 10:49:39;;;;;;;7.88;2.72;;;;;;;;;;4813925;29;32339;-68
2021/11/24 10:52:22;;;;;;;3.78;2.28;;;;;;;;;;4814924;29;32186;-67
2021/11/24 10:55:05;;;;;;;5.15;2.25;;;;;;;;;;4814683;29;32252;-68
2021/11/24 10:57:33;;;;;;;6.10;2.70;;;;;;;;;;4813245;29;32273;-67
2021/11/24 11:00:06;;;;;;;4.53;2.50;;;;;;;;;;4823696;29;35267;-67
2021/11/24 11:02:35;;;;;;;4.65;2.33;;;;;;;;;;4818132;29;32309;-68
2021/11/24 11:05:17;;;;;;;7.47;2.90;;;;;;;;;;4815239;29;32352;-69
2021/11/24 11:07:57;;;;;;;6.32;2.60;;;;;;;;;;4814857;29;32322;-67
2021/11/24 11:10:27;;;;;;;7.65;2.67;;;;;;;;;;4814777;29;35033;-67
2021/11/24 11:12:59;;;;;;;4.90;2.83;;;;;;;;;;4816995;29;32438;-69
2021/11/24 11:15:31;;;;;;;6.15;2.95;;;;;;;;;;4819786;29;32298;-65
2021/11/24 11:18:13;;;;;;;6.93;3.38;;;;;;;;;;4819383;29;32608;-67
2021/11/24 11:20:45;;;;;;;8.20;2.95;;;;;;;;;;4816628;29;32286;-67
2021/11/24 11:23:19;;;;;;;10.13;3.00;;;;;;;;;;4816905;29;35080;-66
2021/11/24 11:25:49;;;;;;;;;;;;;;;;;;4815351;29;32433;-68
2021/11/24 11:28:17;;;;;;;6.85;3.05;;;;;;;;;;4817140;29;32831;-66
2021/11/24 11:30:46;;;;;;;4.45;2.70;;;;;;;;;;4815332;29;32261;-66
2021/11/24 11:33:15;;;;;;;5.88;2.78;;;;;;;;;;4814086;29;34347;-67
2021/11/24 11:35:43;;;;;;;6.18;2.92;;;;;;;;;;4816448;29;32465;-68
2021/11/24 11:38:10;;;;;;;4.68;2.45;;;;;;;;;;4813320;29;32311;-67
2021/11/24 11:40:39;;;;;;;6.35;3.30;;;;;;;;;;4822716;29;32318;-65
2021/11/24 11:43:08;;;;;;;7.60;2.30;;;;;;;;;;4817976;29;32491;-66
2021/11/24 11:45:36;;;;;;;9.25;2.50;;;;;;;;;;4816702;29;33906;-66
2021/11/24 11:48:05;;;;;;;7.57;2.50;;;;;;;;;;4816533;29;32687;-68
2021/11/24 11:50:57;;;;;;;5.82;2.97;;;;;;;;;;4818707;29;32398;-64
2021/11/24 11:53:28;;;;;;;6.13;2.50;;;;;;;;;;4811636;29;33416;-63
2021/11/24 11:56:19;;;;;;;5.88;2.85;;;;;;;;;;4814565;29;35836;-67
2021/11/24 11:58:52;;;;;;;8.98;3.03;;;;;;;;;;4811182;29;32483;-64
2021/11/24 12:01:22;;;;;;;5.82;2.63;;;;;;;;;;4812084;29;32605;-67
2021/11/24 12:04:09;;;;;;;7.90;2.78;;;;;;;;;;4813986;29;32343;-67
2021/11/24 12:06:41;;;;;;;5.70;2.47;;;;;;;;;;4822791;29;32294;-65
2021/11/24 12:09:23;;;;;;;7.72;3.25;;;;;;;;;;4811091;29;34729;-66
2021/11/24 12:12:21;;;;;;;7.82;2.63;;;;;;;;;;4811964;29;32278;-66
2021/11/24 12:15:05;;;;;;;7.78;3.38;;;;;;;;;;4813329;29;32186;-68
2021/11/24 12:17:55;;;;;;;11.15;3.30;;;;;;;;;;4829226;29;32154;-67
2021/11/24 12:20:47;;;;;;;5.22;2.72;;;;;;;;;;4822538;29;34142;-65
2021/11/24 12:23:24;;;;;;;6.38;3.20;;;;;;;;;;4828183;29;32239;-65
2021/11/24 12:25:53;;;;;;;8.32;3.10;;;;;;;;;;4826579;29;32658;-65
2021/11/24 12:28:20;;;;;;;9.55;2.78;;;;;;;;;;4827749;29;32423;-65
2021/11/24 12:31:03;;;;;;;6.57;3.00;;;;;;;;;;4809041;29;32731;-66
2021/11/24 12:33:32;;;;;;;7.28;3.30;;;;;;;;;;4770004;29;34555;-68
2021/11/24 12:36:04;;;;;;;6.57;2.92;;;;;;;;;;4818727;29;32178;-67
2021/11/24 12:38:33;;;;;;;7.25;3.05;;;;;;;;;;4826263;29;32169;-66
2021/11/24 12:41:03;;;;;;;12.43;3.20;;;;;;;;;;4825592;29;32174;-65
2021/11/24 12:43:32;;;;;;;4.43;2.78;;;;;;;;;;4821082;29;34285;-64
2021/11/24 12:46:13;;;;;;;7.28;2.53;;;;;;;;;;4808323;29;32086;-65
2021/11/24 12:48:44;;;;;;;4.88;2.55;;;;;;;;;;4809743;29;32223;-66
2021/11/24 12:51:17;;;;;;;7.32;3.45;;;;;;;;;;4815836;29;32375;-64
2021/11/24 12:53:47;;;;;;;12.30;3.35;;;;;;;;;;4816016;29;32549;-63
2021/11/24 12:56:15;;;;;;;5.88;3.25;;;;;;;;;;4815785;29;34336;-63
2021/11/24 12:58:45;;;;;;;8.05;3.67;;;;;;;;;;4812410;29;32706;-63
2021/11/24 13:01:25;;;;;;;11.52;3.97;;;;;;;;;;4813695;29;32474;-65
2021/11/24 13:04:05;;;;;;;6.30;2.80;;;;;;;;;;4816303;29;32310;-63
2021/11/24 13:06:36;;;;;;;12.90;3.28;;;;;;;;;;4814105;29;34189;-64
2021/11/24 13:09:13;;;;;;;7.43;2.88;;;;;;;;;;4815283;29;32576;-65
2021/11/24 13:11:54;;;;;;;5.40;2.75;;;;;;;;;;4814943;29;32879;-64
2021/11/24 13:14:25;;;;;;;5.55;2.60;;;;;;;;;;4815439;29;32359;-64
2021/11/24 13:17:10;;;;;;;9.82;3.20;;;;;;;;;;4817485;29;32462;-64
2021/11/24 13:19:45;;;;;;;7.57;3.25;;;;;;;;;;4814226;29;35401;-64
2021/11/24 13:22:14;;;;;;;9.63;2.92;;;;;;;;;;4817225;29;32346;-65
2021/11/24 13:24:42;;;;;;;9.50;3.47;;;;;;;;;;4818337;29;32289;-65
2021/11/24 13:27:10;;;;;;;5.93;3.20;;;;;;;;;;4821252;29;32435;-65
2021/11/24 13:29:36;;;;;;;14.63;3.25;;;;;;;;;;4816707;29;34008;-65
2021/11/24 13:32:11;;;;;;;7.38;3.67;;;;;;;;;;4811187;29;32340;-66
2021/11/24 13:34:38;;;;;;;7.07;3.00;;;;;;;;;;4817586;29;32935;-64
2021/11/24 13:37:05;;;;;;;8.90;3.40;;;;;;;;;;4819220;29;32428;-66
2021/11/24 13:39:33;;;;;;;7.30;3.25;;;;;;;;;;4811836;29;32470;-66
2021/11/24 13:42:12;;;;;;;9.07;3.80;;;;;;;;;;4815889;29;34194;-66
2021/11/24 13:44:52;;;;;;;7.18;3.45;;;;;;;;;;4820291;29;32523;-66
2021/11/24 13:47:29;;;;;;;9.18;3.60;;;;;;;;;;4817223;29;32377;-67
2021/11/24 13:49:58;;;;;;;8.02;2.83;;;;;;;;;;4815110;29;32321;-70
2021/11/24 13:52:30;;;;;;;8.60;3.53;;;;;;;;;;4815237;29;34098;-66
2021/11/24 13:54:58;;;;;;;8.88;3.50;;;;;;;;;;4815907;29;32369;-67
2021/11/24 13:57:27;;;;;;;5.50;2.72;;;;;;;;;;4817109;29;32380;-66
2021/11/24 14:00:06;;;;;;;5.78;3.35;;;;;;;;;;4818457;29;32411;-66
2021/11/24 14:02:40;;;;;;;5.78;3.08;;;;;;;;;;4815996;29;32490;-67
2021/11/24 14:05:10;;;;;;;;;;;;;;;;;;4815968;29;34012;-66
2021/11/24 14:07:39;;;;;;;5.97;3.53;;;;;;;;;;4819863;29;32341;-66
2021/11/24 14:10:13;;;;;;;7.35;2.90;;;;;;;;;;4816934;29;32458;-67
2021/11/24 14:12:40;;;;;;;6.75;3.08;;;;;;;;;;4816063;29;32348;-66
2021/11/24 14:15:09;;;;;;;6.18;3.20;;;;;;;;;;4819663;29;35563;-68
2021/11/24 14:17:47;;;;;;;6.45;2.88;;;;;;;;;;4815137;29;32729;-68
2021/11/24 14:20:31;;;;;;;6.38;2.97;;;;;;;;;;4834260;29;32228;-66
2021/11/24 14:23:01;;;;;;;5.65;3.05;;;;;;;;;;4818870;29;32320;-66
2021/11/24 14:25:31;;;;;;;7.15;2.97;;;;;;;;;;4817288;29;32270;-67
2021/11/24 14:28:01;;;;;;;6.32;2.83;;;;;;;;;;4816955;29;36689;-67
2021/11/24 14:30:31;;;;;;;5.40;3.08;;;;;;;;;;4814790;29;32322;-66
2021/11/24 14:33:00;;;;;;;7.22;2.78;;;;;;;;;;4812934;29;32421;-66
2021/11/24 14:35:30;;;;;;;8.20;2.92;;;;;;;;;;4817093;29;32337;-67
2021/11/24 14:37:57;;;;;;;7.07;3.35;;;;;;;;;;4815347;29;34339;-70
2021/11/24 14:40:26;;;;;;;7.45;2.75;;;;;;;;;;4813492;29;32255;-65
2021/11/24 14:42:55;;;;;;;4.93;2.80;;;;;;;;;;4819484;29;32294;-71
2021/11/24 14:45:22;;;;;;;6.18;2.85;;;;;;;;;;4825841;29;32392;-68
2021/11/24 14:47:49;;;;;;;7.00;3.38;;;;;;;;;;4823411;29;32447;-69
2021/11/24 14:50:17;;;;;;;7.20;2.90;;;;;;;;;;4825946;29;32686;-64
2021/11/24 14:52:46;;;;;;;4.03;2.42;;;;;;;;;;4825492;29;32432;-68